STL weather

St Louis Lambert International Airport
St Louis, Missouri, United States

Public forecast

Using degrees Fahrenheit for public forecast. Weather courtesy of forecast.io.

METAR (pilot weather report)

Retrieved 2019/04/21 11:51 UTC (32 minutes ago):

KSTL 211151Z 12003KT 10SM FEW250 09/01 A2999 RMK AO2 SLP153 T00890006 10100 20078 53012

TAF (pilot weather forecast)

Retrieved 2019/04/21 12:34 UTC (0 seconds ago):

TAF KSTL 211132Z 2112/2218 VRB02KT P6SM SKC FM211400 16008KT P6SM FEW250 FM220600 17009KT P6SM BKN150